Time;durP1;ratioP1;P1;durP2;ratioP2;P2;SDS_P1;SDS_P2;PMS_P1;PMS_P2;Temp;Humidity;BMP_temperature;BMP_pressure;BME280_temperature;BME280_humidity;BME280_pressure;Samples;Min_cycle;Max_cycle;Signal;HPM_P1;HPM_P2
2021/12/22 00:01:58;;;;;;;35.38;17.95;;;-5.40;99.90;;;;;;4981625;28;20049;-81
2021/12/22 00:04:25;;;;;;;36.75;17.42;;;-5.40;99.90;;;;;;4995590;28;20058;-81
2021/12/22 00:06:51;;;;;;;34.22;17.15;;;-5.50;99.90;;;;;;4987133;28;20035;-81
2021/12/22 00:09:17;;;;;;;34.75;17.30;;;-5.50;99.90;;;;;;4988294;28;20030;-81
2021/12/22 00:11:43;;;;;;;36.35;17.38;;;-5.50;99.90;;;;;;4972995;28;20041;-81
2021/12/22 00:14:10;;;;;;;32.72;17.48;;;-5.50;99.90;;;;;;4985353;28;20034;-81
2021/12/22 00:16:35;;;;;;;32.38;16.30;;;-5.50;99.90;;;;;;4984289;28;20044;-81
2021/12/22 00:19:01;;;;;;;28.70;15.98;;;-5.50;99.90;;;;;;4965999;28;20030;-81
2021/12/22 00:21:26;;;;;;;31.83;17.77;;;-5.40;99.90;;;;;;4988952;28;20041;-81
2021/12/22 00:23:52;;;;;;;28.77;16.42;;;-5.40;99.90;;;;;;4988052;28;20045;-81
2021/12/22 00:26:17;;;;;;;29.65;15.75;;;-5.50;99.90;;;;;;4978179;28;20125;-81
2021/12/22 00:28:45;;;;;;;31.63;16.30;;;-5.40;99.90;;;;;;4991078;28;20039;-81
2021/12/22 00:31:13;;;;;;;33.78;17.38;;;-5.40;99.90;;;;;;4992173;28;20042;-81
2021/12/22 00:33:46;;;;;;;32.60;16.50;;;-5.50;99.90;;;;;;4998750;28;20131;-81
2021/12/22 00:36:12;;;;;;;36.20;16.83;;;-5.50;99.90;;;;;;5001018;28;20040;-81
2021/12/22 00:38:38;;;;;;;35.45;17.10;;;-5.60;99.90;;;;;;4970719;28;20034;-80
2021/12/22 00:41:04;;;;;;;31.60;17.65;;;-5.50;99.90;;;;;;4965628;28;20410;-81
2021/12/22 00:43:30;;;;;;;34.85;17.38;;;-5.60;99.90;;;;;;4960528;28;20608;-80
2021/12/22 00:45:56;;;;;;;34.50;18.25;;;-5.60;99.90;;;;;;4994346;28;20039;-80
2021/12/22 00:48:22;;;;;;;37.45;17.30;;;-5.60;99.90;;;;;;4984965;28;20070;-81
2021/12/22 00:50:48;;;;;;;35.90;17.17;;;-5.50;99.90;;;;;;4992806;28;20035;-81
2021/12/22 00:53:13;;;;;;;38.30;16.85;;;-5.50;99.90;;;;;;4990680;28;20034;-80
2021/12/22 00:55:39;;;;;;;31.90;17.10;;;-5.50;99.90;;;;;;4972938;28;20060;-80
2021/12/22 00:58:05;;;;;;;37.95;17.35;;;-5.40;99.90;;;;;;4986137;28;20034;-81
2021/12/22 01:00:33;;;;;;;29.73;16.58;;;-5.50;99.90;;;;;;5015105;28;20054;-80
2021/12/22 01:02:58;;;;;;;35.63;16.02;;;-5.60;99.90;;;;;;5003977;28;20038;-80
2021/12/22 01:05:24;;;;;;;35.47;17.67;;;-5.60;99.90;;;;;;4953833;28;20037;-80
2021/12/22 01:07:50;;;;;;;37.28;17.02;;;-5.50;99.90;;;;;;5001142;28;20022;-80
2021/12/22 01:10:18;;;;;;;33.15;18.05;;;-5.60;99.90;;;;;;4980267;28;20026;-80
2021/12/22 01:12:43;;;;;;;31.90;15.63;;;-5.60;99.90;;;;;;5005707;28;20033;-80
2021/12/22 01:15:11;;;;;;;31.90;17.30;;;-5.60;99.90;;;;;;4988981;28;20084;-81
2021/12/22 01:17:41;;;;;;;37.47;17.13;;;-5.60;99.90;;;;;;4955396;28;20033;-80
2021/12/22 01:20:15;;;;;;;35.80;17.55;;;-5.60;99.90;;;;;;4982056;28;20025;-80
2021/12/22 01:25:08;;;;;;;36.75;17.60;;;-5.60;99.90;;;;;;4998549;28;20030;-80
2021/12/22 01:27:38;;;;;;;31.73;16.08;;;-5.60;99.90;;;;;;4957465;28;20041;-80
2021/12/22 01:30:07;;;;;;;29.15;17.23;;;-5.60;99.90;;;;;;4987836;28;20026;-81
2021/12/22 01:32:33;;;;;;;33.25;17.25;;;-5.60;99.90;;;;;;4985035;28;20058;-80
2021/12/22 01:34:58;;;;;;;34.35;17.10;;;-5.60;99.90;;;;;;4983365;28;20474;-82
2021/12/22 01:37:24;;;;;;;32.97;17.27;;;-5.60;99.90;;;;;;4979503;28;20095;-81
2021/12/22 01:39:50;;;;;;;32.55;16.25;;;-5.60;99.90;;;;;;4980339;28;20026;-81
2021/12/22 01:42:15;;;;;;;31.52;16.92;;;-5.50;99.90;;;;;;4989370;28;20034;-81
2021/12/22 01:45:00;;;;;;;30.23;15.98;;;-5.50;99.90;;;;;;5002325;28;20034;-81
2021/12/22 01:50:16;;;;;;;28.15;16.48;;;-5.70;99.90;;;;;;4970244;28;20081;-81
2021/12/22 01:52:42;;;;;;;32.70;16.95;;;-5.70;99.90;;;;;;4976342;28;20478;-81
2021/12/22 01:55:17;;;;;;;29.23;16.55;;;-5.80;99.90;;;;;;4989805;28;20156;-81
2021/12/22 01:57:48;;;;;;;35.67;16.38;;;-5.80;99.90;;;;;;4987966;28;20031;-81
2021/12/22 02:00:14;;;;;;;34.65;16.98;;;-5.70;99.90;;;;;;4989160;28;20033;-81
2021/12/22 02:02:40;;;;;;;34.50;16.25;;;-5.70;99.90;;;;;;5007325;28;20386;-81
2021/12/22 02:05:05;;;;;;;28.65;15.55;;;-5.70;99.90;;;;;;4989117;28;20029;-81
2021/12/22 02:07:31;;;;;;;31.25;16.63;;;-5.70;99.90;;;;;;5001283;28;20514;-81
2021/12/22 02:12:28;;;;;;;29.80;16.27;;;-5.70;99.90;;;;;;4979530;28;20027;-81
2021/12/22 02:14:53;;;;;;;27.88;15.45;;;-5.70;99.90;;;;;;4956089;28;20031;-81
2021/12/22 02:17:19;;;;;;;27.77;15.70;;;-5.70;99.90;;;;;;4948542;28;20030;-81
2021/12/22 02:19:45;;;;;;;32.70;15.60;;;-5.70;99.90;;;;;;4985912;28;20035;-81
2021/12/22 02:22:14;;;;;;;30.38;15.65;;;-5.70;99.90;;;;;;4995209;28;20034;-81
2021/12/22 02:24:48;;;;;;;30.40;14.75;;;-5.80;99.90;;;;;;4966786;28;20042;-81
2021/12/22 02:27:29;;;;;;;31.77;15.65;;;-6.00;99.90;;;;;;4972281;28;20037;-81
2021/12/22 02:29:59;;;;;;;32.88;15.55;;;-6.00;99.90;;;;;;4956935;28;20133;-81
2021/12/22 02:33:20;;;;;;;28.58;15.77;;;-6.10;99.90;;;;;;4980557;28;20112;-81
2021/12/22 02:35:14;;;;;;;29.00;14.93;;;-6.20;99.90;;;;;;5007555;28;20088;-81
2021/12/22 02:37:45;;;;;;;31.25;16.98;;;-6.10;99.90;;;;;;4983990;28;20030;-81
2021/12/22 02:40:14;;;;;;;28.67;16.27;;;-6.10;99.90;;;;;;4984359;28;20053;-81
2021/12/22 02:42:40;;;;;;;38.05;17.02;;;-6.10;99.90;;;;;;4986367;28;20548;-81
2021/12/22 02:45:33;;;;;;;30.33;16.70;;;-6.20;99.90;;;;;;4962051;28;20423;-81
2021/12/22 02:47:59;;;;;;;24.65;14.73;;;-6.20;99.90;;;;;;4972320;28;20101;-81
2021/12/22 02:50:24;;;;;;;31.17;16.80;;;-6.20;99.90;;;;;;4974490;28;20449;-81
2021/12/22 02:53:03;;;;;;;36.53;16.90;;;-6.20;99.90;;;;;;4974591;28;20038;-81
2021/12/22 02:55:41;;;;;;;31.40;15.77;;;-6.10;99.90;;;;;;4958464;28;20038;-81
2021/12/22 02:58:07;;;;;;;29.90;15.68;;;-6.10;99.90;;;;;;4977520;28;20037;-81
2021/12/22 03:00:47;;;;;;;31.70;16.00;;;-6.00;99.90;;;;;;4984105;28;20081;-81
2021/12/22 03:05:59;;;;;;;34.55;15.30;;;-6.00;99.90;;;;;;5004006;28;20681;-81
2021/12/22 03:08:24;;;;;;;28.70;15.65;;;-6.00;99.90;;;;;;4965421;28;20546;-81
2021/12/22 03:10:53;;;;;;;33.88;15.90;;;-6.00;99.90;;;;;;4981601;28;20203;-81
2021/12/22 03:13:20;;;;;;;29.88;15.48;;;-5.90;99.90;;;;;;4971494;28;20510;-81
2021/12/22 03:15:46;;;;;;;32.40;14.65;;;-5.90;99.90;;;;;;4990293;28;20491;-81
2021/12/22 03:18:11;;;;;;;29.80;15.43;;;-6.00;99.90;;;;;;5002061;28;20041;-81
2021/12/22 03:20:37;;;;;;;27.70;15.02;;;-6.00;99.90;;;;;;4964640;28;20036;-81
2021/12/22 03:23:04;;;;;;;25.90;13.88;;;-6.00;99.90;;;;;;4987884;28;20166;-81
2021/12/22 03:25:30;;;;;;;24.55;13.00;;;-6.00;99.90;;;;;;4957683;28;20054;-81
2021/12/22 03:28:01;;;;;;;27.77;14.50;;;-6.00;99.90;;;;;;4990802;28;20116;-81
2021/12/22 03:30:26;;;;;;;24.85;13.32;;;-6.10;99.90;;;;;;4993508;28;20031;-81
2021/12/22 03:32:52;;;;;;;29.45;14.60;;;-6.10;99.90;;;;;;5004521;28;20036;-81
2021/12/22 03:35:20;;;;;;;26.75;14.18;;;-6.10;99.90;;;;;;4952915;28;20019;-81
2021/12/22 03:37:48;;;;;;;28.58;14.98;;;-6.10;99.90;;;;;;4999291;28;20029;-81
2021/12/22 03:40:14;;;;;;;24.85;14.10;;;-6.10;99.90;;;;;;4975306;28;20034;-81
2021/12/22 03:42:40;;;;;;;30.83;14.88;;;-6.20;99.90;;;;;;4965902;28;20022;-81
2021/12/22 03:45:06;;;;;;;29.88;15.27;;;-6.10;99.90;;;;;;4943717;28;20034;-81
2021/12/22 03:47:31;;;;;;;27.70;14.32;;;-6.10;99.90;;;;;;4988301;28;20042;-81
2021/12/22 03:49:57;;;;;;;23.25;13.07;;;-6.10;99.90;;;;;;4978849;28;20034;-81
2021/12/22 03:52:22;;;;;;;26.80;13.90;;;-6.20;99.90;;;;;;4953271;28;20554;-81
2021/12/22 03:54:54;;;;;;;21.92;13.18;;;-6.10;99.90;;;;;;4991127;28;20493;-81
2021/12/22 03:57:20;;;;;;;23.85;13.80;;;-6.20;99.90;;;;;;4992847;28;20027;-81
2021/12/22 03:59:45;;;;;;;24.42;13.60;;;-6.10;99.90;;;;;;4992804;28;20446;-81
2021/12/22 04:02:12;;;;;;;26.40;14.02;;;-6.00;99.90;;;;;;4968679;28;20038;-80
2021/12/22 04:04:37;;;;;;;26.02;14.32;;;-6.10;99.90;;;;;;4954663;28;20054;-81
2021/12/22 04:07:03;;;;;;;29.08;14.30;;;-6.00;99.90;;;;;;4969636;28;20038;-81
2021/12/22 04:09:29;;;;;;;29.85;15.32;;;-6.10;99.90;;;;;;4978700;28;20038;-81
2021/12/22 04:11:55;;;;;;;29.40;14.90;;;-6.10;99.90;;;;;;4976296;28;20029;-80
2021/12/22 04:14:21;;;;;;;27.40;14.75;;;-6.10;99.90;;;;;;4986193;28;20421;-81
2021/12/22 04:16:46;;;;;;;31.17;13.85;;;-6.20;99.90;;;;;;4960239;28;20493;-81
2021/12/22 04:19:12;;;;;;;33.72;15.40;;;-6.10;99.90;;;;;;4983596;28;20038;-81
2021/12/22 04:21:38;;;;;;;31.38;15.07;;;-6.20;99.90;;;;;;4982114;28;20402;-81
2021/12/22 04:24:06;;;;;;;27.40;14.63;;;-6.10;99.90;;;;;;4984804;28;20120;-81
2021/12/22 04:26:32;;;;;;;28.58;14.30;;;-6.20;99.90;;;;;;4985098;28;20494;-81
2021/12/22 04:28:58;;;;;;;27.83;14.77;;;-6.10;99.90;;;;;;4985660;28;20398;-80
2021/12/22 04:31:24;;;;;;;28.15;15.23;;;-6.10;99.90;;;;;;4986396;28;20067;-81
2021/12/22 04:33:50;;;;;;;32.35;14.65;;;-6.10;99.90;;;;;;4975562;28;20489;-81
2021/12/22 04:36:15;;;;;;;29.20;15.02;;;-6.20;99.90;;;;;;4997593;28;20541;-81
2021/12/22 04:38:41;;;;;;;30.48;15.52;;;-6.10;99.90;;;;;;4986916;28;20081;-81
2021/12/22 04:41:06;;;;;;;30.33;14.52;;;-6.20;99.90;;;;;;4990725;28;20026;-81
2021/12/22 04:43:32;;;;;;;38.28;15.27;;;-6.20;99.90;;;;;;5002973;28;20034;-81
2021/12/22 04:45:58;;;;;;;25.65;14.93;;;-6.20;99.90;;;;;;5001372;28;20041;-81
2021/12/22 04:48:23;;;;;;;29.88;15.20;;;-6.20;99.90;;;;;;4999500;28;20517;-81
2021/12/22 04:50:49;;;;;;;33.85;15.73;;;-6.20;99.90;;;;;;4986010;28;20049;-80
2021/12/22 04:53:21;;;;;;;30.52;15.82;;;-6.10;99.90;;;;;;5001717;28;20105;-81
2021/12/22 04:55:46;;;;;;;32.22;15.32;;;-6.30;99.90;;;;;;5002850;28;20029;-81
2021/12/22 04:58:12;;;;;;;28.15;15.15;;;-6.20;99.90;;;;;;4956624;28;20045;-81
2021/12/22 05:00:38;;;;;;;29.10;15.45;;;-6.20;99.90;;;;;;4984010;28;20034;-81
2021/12/22 05:03:03;;;;;;;31.30;14.75;;;-6.20;99.90;;;;;;4992092;28;20035;-80
2021/12/22 05:05:29;;;;;;;27.92;14.05;;;-6.30;99.90;;;;;;4990518;28;20027;-80
2021/12/22 05:07:55;;;;;;;29.58;14.20;;;-6.20;99.90;;;;;;4977287;28;20034;-80
2021/12/22 05:10:21;;;;;;;31.75;15.93;;;-6.20;99.90;;;;;;4974685;28;20401;-80
2021/12/22 05:12:46;;;;;;;29.10;14.82;;;-6.30;99.90;;;;;;4953322;28;20397;-80
2021/12/22 05:15:12;;;;;;;33.22;14.57;;;-6.20;99.90;;;;;;4972929;28;20098;-80
2021/12/22 05:20:10;;;;;;;24.90;14.30;;;-6.30;99.90;;;;;;4992454;28;20092;-80
2021/12/22 05:22:36;;;;;;;27.85;14.40;;;-6.40;99.90;;;;;;5023184;28;20088;-80
2021/12/22 05:25:03;;;;;;;22.75;14.13;;;-6.30;99.90;;;;;;4996319;28;20760;-80
2021/12/22 05:27:29;;;;;;;27.13;14.15;;;-6.30;99.90;;;;;;4982028;28;20030;-80
2021/12/22 05:29:55;;;;;;;29.45;14.63;;;-6.30;99.90;;;;;;4990257;28;20037;-80
2021/12/22 05:32:23;;;;;;;26.58;14.75;;;-6.30;99.90;;;;;;4971072;28;20065;-80
2021/12/22 05:34:49;;;;;;;26.30;14.45;;;-6.40;99.90;;;;;;4996140;28;20036;-80
2021/12/22 05:37:15;;;;;;;26.30;13.45;;;-6.30;99.90;;;;;;5002530;28;20022;-80
2021/12/22 05:39:40;;;;;;;26.63;13.40;;;-6.30;99.90;;;;;;4993520;28;20093;-80
2021/12/22 05:42:06;;;;;;;24.25;14.55;;;-6.30;99.90;;;;;;4991234;28;20485;-80
2021/12/22 05:44:31;;;;;;;23.65;11.85;;;-6.40;99.90;;;;;;4985626;28;20498;-80
2021/12/22 05:46:57;;;;;;;26.60;13.10;;;-6.30;99.90;;;;;;4979562;28;20042;-80
2021/12/22 05:49:22;;;;;;;26.95;14.15;;;-6.40;99.90;;;;;;4966733;28;20030;-80
2021/12/22 05:51:48;;;;;;;20.73;12.00;;;-6.40;99.90;;;;;;4974241;28;20034;-80
2021/12/22 05:54:13;;;;;;;22.20;12.20;;;-6.40;99.90;;;;;;4952912;28;20093;-81
2021/12/22 05:56:39;;;;;;;22.52;10.90;;;-6.40;99.90;;;;;;4991684;28;20034;-80
2021/12/22 05:59:04;;;;;;;29.05;14.13;;;-6.40;99.90;;;;;;5001508;28;20046;-80
2021/12/22 06:01:30;;;;;;;26.55;13.13;;;-6.40;99.90;;;;;;4984785;28;20034;-80
2021/12/22 06:03:56;;;;;;;23.88;12.60;;;-6.50;99.90;;;;;;4967857;28;20441;-80
2021/12/22 06:06:22;;;;;;;24.10;12.85;;;-6.50;99.90;;;;;;4996682;28;20462;-80
2021/12/22 06:08:47;;;;;;;22.77;12.32;;;-6.50;99.90;;;;;;4978882;28;20034;-81
2021/12/22 06:11:13;;;;;;;28.42;13.15;;;-6.50;99.90;;;;;;4985961;28;20486;-81
2021/12/22 06:13:39;;;;;;;25.73;12.85;;;-6.40;99.90;;;;;;4998942;28;20548;-80
2021/12/22 06:16:04;;;;;;;27.13;12.82;;;-6.50;99.90;;;;;;4987029;28;20124;-80
2021/12/22 06:18:30;;;;;;;24.70;11.75;;;-6.40;99.90;;;;;;4992347;28;20586;-80
2021/12/22 06:20:56;;;;;;;25.27;12.90;;;-6.40;99.90;;;;;;4996510;28;20513;-80
2021/12/22 06:23:21;;;;;;;22.80;11.85;;;-6.40;99.90;;;;;;4976888;28;20046;-80
2021/12/22 06:25:47;;;;;;;26.48;11.80;;;-6.50;99.90;;;;;;4989762;28;20108;-80
2021/12/22 06:28:12;;;;;;;24.70;11.70;;;-6.40;99.90;;;;;;4968210;28;20651;-80
2021/12/22 06:30:38;;;;;;;30.00;13.18;;;-6.40;99.90;;;;;;4976705;28;20540;-79
2021/12/22 06:33:03;;;;;;;22.02;11.27;;;-6.50;99.90;;;;;;4999200;28;20034;-81
2021/12/22 06:35:29;;;;;;;21.48;11.25;;;-6.50;99.90;;;;;;4966777;28;20111;-80
2021/12/22 06:37:54;;;;;;;20.92;12.07;;;-6.50;99.90;;;;;;4988488;28;20112;-80
2021/12/22 06:40:20;;;;;;;22.10;12.02;;;-6.50;99.90;;;;;;4978728;28;20089;-80
2021/12/22 06:42:46;;;;;;;25.00;11.77;;;-6.50;99.90;;;;;;4987056;28;20021;-80
2021/12/22 06:45:12;;;;;;;23.80;12.27;;;-6.50;99.90;;;;;;4975282;28;20022;-80
2021/12/22 06:47:38;;;;;;;22.20;10.75;;;-6.40;99.90;;;;;;4969833;28;20124;-80
2021/12/22 06:50:04;;;;;;;23.52;12.38;;;-6.40;99.90;;;;;;4973686;28;20121;-81
2021/12/22 06:52:30;;;;;;;26.27;12.23;;;-6.50;99.90;;;;;;4989872;28;20041;-80
2021/12/22 06:54:55;;;;;;;30.67;13.02;;;-6.50;99.90;;;;;;4977663;28;20429;-81
2021/12/22 06:57:22;;;;;;;22.98;12.55;;;-6.50;99.90;;;;;;4996332;28;20026;-81
2021/12/22 06:59:48;;;;;;;25.52;11.32;;;-6.60;99.90;;;;;;4994556;28;20042;-81
2021/12/22 07:02:13;;;;;;;22.45;12.63;;;-6.60;99.90;;;;;;4951756;28;20045;-82
2021/12/22 07:04:39;;;;;;;25.83;12.40;;;-6.60;99.90;;;;;;4985582;28;20121;-81
2021/12/22 07:07:05;;;;;;;21.30;11.05;;;-6.60;99.90;;;;;;4964446;28;20031;-81
2021/12/22 07:09:30;;;;;;;20.30;11.70;;;-6.60;99.90;;;;;;4978611;28;20129;-81
2021/12/22 07:11:56;;;;;;;21.73;11.48;;;-6.60;99.90;;;;;;4976529;28;20119;-81
2021/12/22 07:14:21;;;;;;;20.30;11.50;;;-6.60;99.90;;;;;;4979364;28;20042;-81
2021/12/22 07:16:47;;;;;;;24.77;11.70;;;-6.60;99.90;;;;;;5003673;28;20137;-81
2021/12/22 07:19:13;;;;;;;20.73;11.30;;;-6.60;99.90;;;;;;5001913;28;20485;-81
2021/12/22 07:21:38;;;;;;;23.52;12.35;;;-6.60;99.90;;;;;;4997015;28;20487;-80
2021/12/22 07:24:06;;;;;;;20.58;11.52;;;-6.60;99.90;;;;;;4987156;28;20030;-80
2021/12/22 07:26:31;;;;;;;25.55;11.88;;;-6.60;99.90;;;;;;4970597;28;20125;-81
2021/12/22 07:28:57;;;;;;;20.33;11.40;;;-6.50;99.90;;;;;;4987405;28;20453;-81
2021/12/22 07:31:22;;;;;;;22.77;12.05;;;-6.50;99.90;;;;;;4972191;28;20038;-81
2021/12/22 07:34:07;;;;;;;18.13;11.10;;;-6.50;99.90;;;;;;4980369;28;20079;-81
2021/12/22 07:36:34;;;;;;;23.23;13.20;;;-6.40;99.90;;;;;;4996715;28;20038;-80
2021/12/22 07:39:01;;;;;;;24.33;12.50;;;-6.40;99.90;;;;;;4953506;28;20072;-81
2021/12/22 07:41:27;;;;;;;23.83;12.15;;;-6.40;99.90;;;;;;4995363;28;20082;-81
2021/12/22 07:43:53;;;;;;;23.58;11.48;;;-6.40;99.90;;;;;;4969826;28;20038;-81
2021/12/22 07:46:18;;;;;;;22.50;11.82;;;-6.30;99.90;;;;;;4988009;28;20038;-81
2021/12/22 07:48:44;;;;;;;25.52;12.82;;;-6.40;99.90;;;;;;4993812;28;20526;-81
2021/12/22 07:51:10;;;;;;;21.65;12.77;;;-6.30;99.90;;;;;;4992464;28;20065;-81
2021/12/22 07:53:35;;;;;;;24.88;11.60;;;-6.30;99.90;;;;;;4996190;28;20041;-81
2021/12/22 07:56:01;;;;;;;22.20;12.00;;;-6.30;99.90;;;;;;4957407;28;20030;-81
2021/12/22 07:58:26;;;;;;;22.92;12.20;;;-6.30;99.90;;;;;;4987896;28;20499;-81
2021/12/22 08:00:52;;;;;;;26.77;13.10;;;-6.20;99.90;;;;;;5003127;28;20117;-81
2021/12/22 08:03:19;;;;;;;23.27;12.10;;;-6.20;99.90;;;;;;4988798;28;20041;-81
2021/12/22 08:05:45;;;;;;;18.35;10.25;;;-6.10;99.90;;;;;;4990429;28;20046;-81
2021/12/22 08:08:10;;;;;;;24.05;11.38;;;-6.10;99.90;;;;;;4982759;28;20030;-80
2021/12/22 08:10:36;;;;;;;19.38;9.95;;;-6.00;99.90;;;;;;4990276;28;20618;-81
2021/12/22 08:13:02;;;;;;;19.08;10.90;;;-6.00;99.90;;;;;;4959340;28;20025;-81
2021/12/22 08:15:27;;;;;;;24.90;13.73;;;-6.10;99.90;;;;;;4970006;28;20030;-81
2021/12/22 08:17:54;;;;;;;30.15;13.32;;;-6.00;99.90;;;;;;4957184;28;20031;-81
2021/12/22 08:20:20;;;;;;;26.58;14.50;;;-5.90;99.90;;;;;;4963201;28;20088;-81
2021/12/22 08:22:46;;;;;;;26.48;12.55;;;-5.90;99.90;;;;;;4985602;28;20498;-81
2021/12/22 08:25:12;;;;;;;23.20;12.25;;;-5.80;99.90;;;;;;4963924;28;20026;-81
2021/12/22 08:27:38;;;;;;;27.42;13.48;;;-5.80;99.90;;;;;;4976847;28;20026;-81
2021/12/22 08:30:05;;;;;;;22.95;12.57;;;-5.70;99.90;;;;;;4981313;28;20471;-81
2021/12/22 08:32:30;;;;;;;24.08;12.63;;;-5.60;99.90;;;;;;4981253;28;20085;-81
2021/12/22 08:34:56;;;;;;;27.45;12.95;;;-5.50;99.90;;;;;;4984189;28;20042;-81
2021/12/22 08:40:08;;;;;;;26.55;12.55;;;-5.50;99.90;;;;;;5001889;28;20092;-82
2021/12/22 08:42:34;;;;;;;21.92;10.95;;;-5.30;99.90;;;;;;4967420;28;20042;-81
2021/12/22 08:44:59;;;;;;;29.65;12.82;;;-5.20;99.90;;;;;;4985898;28;20054;-81
2021/12/22 08:47:25;;;;;;;21.23;11.95;;;-5.10;99.90;;;;;;4969967;28;20132;-80
2021/12/22 08:49:50;;;;;;;23.42;13.23;;;-5.10;99.90;;;;;;4968801;28;20034;-81
2021/12/22 08:52:16;;;;;;;23.27;13.60;;;-5.00;99.90;;;;;;4984076;28;20038;-81
2021/12/22 08:54:42;;;;;;;20.27;11.77;;;-5.20;99.90;;;;;;4968584;28;20101;-81
2021/12/22 08:57:11;;;;;;;26.88;13.38;;;-5.20;99.90;;;;;;4992459;28;20038;-80
2021/12/22 08:59:36;;;;;;;25.48;11.18;;;-5.10;99.90;;;;;;4994360;28;20038;-80
2021/12/22 09:02:04;;;;;;;21.70;10.75;;;-5.00;99.90;;;;;;4964288;28;20428;-81
2021/12/22 09:04:30;;;;;;;18.95;11.68;;;-4.80;99.90;;;;;;4970083;28;20100;-80
2021/12/22 09:06:56;;;;;;;22.08;11.48;;;-4.70;99.90;;;;;;4980641;28;20050;-81
2021/12/22 09:09:21;;;;;;;27.17;11.80;;;-4.60;99.90;;;;;;4967531;28;20058;-81
2021/12/22 09:11:47;;;;;;;19.25;10.55;;;-4.50;99.90;;;;;;4999328;28;20045;-81
2021/12/22 09:14:13;;;;;;;24.33;11.90;;;-4.30;99.90;;;;;;4952293;28;20073;-80
2021/12/22 09:16:39;;;;;;;21.30;11.00;;;-4.30;99.90;;;;;;4966037;28;20497;-81
2021/12/22 09:19:05;;;;;;;19.33;12.40;;;-4.20;99.90;;;;;;4996822;28;20034;-81
2021/12/22 09:21:31;;;;;;;22.38;11.85;;;-4.20;99.90;;;;;;4981001;28;20521;-81
2021/12/22 09:23:56;;;;;;;22.52;12.50;;;-4.10;99.90;;;;;;4974513;28;20026;-81
2021/12/22 09:26:22;;;;;;;24.52;13.45;;;-4.00;99.90;;;;;;4985134;28;20050;-81
2021/12/22 09:28:48;;;;;;;22.88;12.27;;;-4.00;99.90;;;;;;4985625;28;20034;-81
2021/12/22 09:31:13;;;;;;;24.00;12.52;;;-3.90;99.90;;;;;;4954875;28;20023;-81
2021/12/22 09:33:39;;;;;;;31.60;12.55;;;-3.80;99.90;;;;;;4993293;28;20030;-82
2021/12/22 09:36:06;;;;;;;19.65;11.23;;;-3.50;99.90;;;;;;4986277;28;20034;-81
2021/12/22 09:38:31;;;;;;;22.95;11.65;;;-3.20;99.90;;;;;;4973617;28;20145;-81
2021/12/22 09:40:57;;;;;;;19.05;11.52;;;-3.10;99.90;;;;;;4983848;28;20113;-81
2021/12/22 09:43:24;;;;;;;18.48;9.65;;;-3.10;99.90;;;;;;4982524;28;20031;-81
2021/12/22 09:45:56;;;;;;;26.75;13.65;;;-2.80;99.90;;;;;;4999142;28;20031;-81
2021/12/22 09:48:31;;;;;;;17.67;10.18;;;-2.80;99.90;;;;;;4966619;28;20034;-81
2021/12/22 09:53:29;;;;;;;15.98;10.93;;;-2.40;99.90;;;;;;4986664;28;20081;-81
2021/12/22 09:55:56;;;;;;;19.58;10.48;;;-2.30;99.90;;;;;;5003682;28;20061;-81
2021/12/22 09:58:22;;;;;;;14.57;8.85;;;-2.30;99.90;;;;;;5002734;28;20034;-81
2021/12/22 10:00:48;;;;;;;16.15;8.55;;;-2.00;99.90;;;;;;4987932;28;20057;-82
2021/12/22 10:03:14;;;;;;;16.80;8.15;;;-1.80;99.90;;;;;;4972927;28;20029;-81
2021/12/22 10:05:40;;;;;;;15.20;8.25;;;-1.50;99.90;;;;;;5002273;28;20095;-81
2021/12/22 10:08:13;;;;;;;15.98;8.75;;;-1.40;99.90;;;;;;4986970;28;20044;-82
2021/12/22 10:10:41;;;;;;;15.50;8.15;;;-1.30;99.90;;;;;;4953352;28;20034;-82
2021/12/22 10:13:08;;;;;;;28.58;12.32;;;-1.00;99.90;;;;;;4997046;28;20042;-82
2021/12/22 10:15:35;;;;;;;19.40;8.40;;;-1.10;99.90;;;;;;4954703;28;20625;-81
2021/12/22 10:18:15;;;;;;;17.25;8.68;;;-0.70;99.90;;;;;;4991558;28;20092;-82
2021/12/22 10:20:42;;;;;;;16.63;8.63;;;-0.60;99.90;;;;;;4964350;28;20030;-82
2021/12/22 10:23:21;;;;;;;17.77;9.30;;;-0.60;99.90;;;;;;4982669;28;20402;-82
2021/12/22 10:26:08;;;;;;;24.45;11.90;;;-0.30;99.90;;;;;;4986761;28;20058;-82
2021/12/22 10:28:51;;;;;;;15.98;9.52;;;-0.30;99.90;;;;;;4969715;28;20584;-82
2021/12/22 10:31:18;;;;;;;16.13;9.00;;;0.00;99.90;;;;;;4986640;28;20041;-82
2021/12/22 10:33:44;;;;;;;19.85;10.85;;;-0.10;99.90;;;;;;4964595;28;20038;-82
2021/12/22 10:36:15;;;;;;;25.40;12.07;;;-0.10;99.90;;;;;;4984001;28;20041;-82
2021/12/22 10:38:46;;;;;;;14.30;8.88;;;-0.10;99.90;;;;;;4990656;28;20068;-82
2021/12/22 10:41:12;;;;;;;17.17;9.65;;;-0.10;99.90;;;;;;4984009;28;20045;-82
2021/12/22 10:43:45;;;;;;;21.55;10.55;;;0.00;99.90;;;;;;4987066;28;20041;-82
2021/12/22 10:46:16;;;;;;;19.80;8.30;;;0.20;99.90;;;;;;4954314;28;20458;-82
2021/12/22 10:51:36;;;;;;;10.88;7.25;;;0.40;99.90;;;;;;4991033;28;20054;-82
2021/12/22 10:54:06;;;;;;;15.93;8.30;;;0.50;99.90;;;;;;4996067;28;20035;-82
2021/12/22 10:56:33;;;;;;;15.88;9.10;;;0.60;99.90;;;;;;4982872;28;20041;-82
2021/12/22 10:59:07;;;;;;;15.23;7.40;;;0.70;99.90;;;;;;4952220;28;20034;-82
2021/12/22 11:01:37;;;;;;;19.83;10.02;;;0.70;99.90;;;;;;4979441;28;20042;-82
2021/12/22 11:04:06;;;;;;;14.63;8.93;;;0.90;99.90;;;;;;4972041;28;20093;-82
2021/12/22 11:06:33;;;;;;;15.68;9.75;;;1.00;99.90;;;;;;4987548;28;20568;-82
2021/12/22 11:09:10;;;;;;;16.25;10.23;;;1.10;99.90;;;;;;4999137;28;20088;-82
2021/12/22 11:11:37;;;;;;;18.17;9.45;;;1.30;99.90;;;;;;4992460;28;20046;-82
2021/12/22 11:14:08;;;;;;;14.15;8.38;;;1.30;99.90;;;;;;4987287;28;20038;-82
2021/12/22 11:16:49;;;;;;;16.13;8.82;;;1.30;99.90;;;;;;4986350;28;20052;-82
2021/12/22 11:19:15;;;;;;;15.43;8.15;;;1.70;99.90;;;;;;4984449;28;20041;-82
2021/12/22 11:21:58;;;;;;;15.40;8.63;;;1.80;99.90;;;;;;4997644;28;20022;-82
2021/12/22 11:24:26;;;;;;;13.95;8.60;;;1.80;99.90;;;;;;4988661;28;20025;-82
2021/12/22 11:26:52;;;;;;;14.57;8.38;;;1.80;99.90;;;;;;4955544;28;20149;-82
2021/12/22 11:29:18;;;;;;;12.10;7.40;;;1.90;99.90;;;;;;4970633;28;20790;-82
2021/12/22 11:31:43;;;;;;;16.50;8.60;;;2.00;99.90;;;;;;4977250;28;20125;-82
2021/12/22 11:34:09;;;;;;;15.30;8.90;;;2.10;99.90;;;;;;4994108;28;20045;-82
2021/12/22 11:36:35;;;;;;;17.58;9.73;;;2.30;99.90;;;;;;4989223;28;20122;-82
2021/12/22 11:39:00;;;;;;;16.08;9.13;;;2.20;99.90;;;;;;4967034;28;20034;-82
2021/12/22 11:41:27;;;;;;;15.15;7.47;;;2.40;99.90;;;;;;4983474;28;20058;-82
2021/12/22 11:43:53;;;;;;;13.15;7.53;;;2.70;99.90;;;;;;4994337;28;20082;-82
2021/12/22 11:46:18;;;;;;;12.35;7.72;;;2.70;99.90;;;;;;4967033;28;20098;-81
2021/12/22 11:48:47;;;;;;;15.82;7.68;;;2.80;99.90;;;;;;4983836;28;20499;-81
2021/12/22 11:51:29;;;;;;;11.25;7.32;;;2.80;99.90;;;;;;4975668;28;20121;-82
2021/12/22 11:53:59;;;;;;;10.88;7.00;;;2.90;99.90;;;;;;4986072;28;20030;-81
2021/12/22 11:56:44;;;;;;;12.43;7.13;;;3.00;99.90;;;;;;4986394;28;20439;-81
2021/12/22 11:59:28;;;;;;;12.50;7.40;;;3.20;99.90;;;;;;4988556;28;20045;-82
2021/12/22 12:02:15;;;;;;;16.10;8.90;;;3.00;99.90;;;;;;4997063;28;20118;-81
2021/12/22 12:04:41;;;;;;;12.02;7.13;;;3.10;99.90;;;;;;4999690;28;21667;-81
2021/12/22 12:07:06;;;;;;;9.70;5.88;;;3.20;99.90;;;;;;4961671;28;20027;-81
2021/12/22 12:09:32;;;;;;;12.73;7.07;;;3.20;99.90;;;;;;4995432;28;20022;-82
2021/12/22 12:11:58;;;;;;;11.00;6.53;;;3.30;99.90;;;;;;4988396;28;20026;-82
2021/12/22 12:23:28;;;;;;;8.18;5.18;;;3.80;99.90;;;;;;4992255;28;20037;-80
2021/12/22 12:25:56;;;;;;;11.07;6.05;;;3.60;99.90;;;;;;5000140;28;20113;-80
2021/12/22 12:28:23;;;;;;;9.98;5.63;;;3.60;99.90;;;;;;4959789;28;21109;-81
2021/12/22 12:30:49;;;;;;;8.77;5.05;;;3.40;99.90;;;;;;4992138;28;20082;-80
2021/12/22 12:33:26;;;;;;;10.98;5.20;;;3.60;99.90;;;;;;4988045;28;20158;-81
2021/12/22 12:35:53;;;;;;;11.90;6.80;;;3.60;99.90;;;;;;4973591;28;20389;-81
2021/12/22 12:38:25;;;;;;;10.20;5.35;;;3.60;99.90;;;;;;4955956;28;20038;-80
2021/12/22 12:41:05;;;;;;;7.72;5.05;;;3.50;99.90;;;;;;4990649;28;20044;-81
2021/12/22 12:43:43;;;;;;;6.13;4.18;;;3.50;99.90;;;;;;5003419;28;20034;-80
2021/12/22 12:46:24;;;;;;;8.23;5.75;;;3.70;99.90;;;;;;5004516;28;20117;-80
2021/12/22 12:48:56;;;;;;;7.35;4.60;;;3.70;99.90;;;;;;5003222;28;20533;-80
2021/12/22 12:51:29;;;;;;;8.23;5.78;;;3.50;99.90;;;;;;5015794;28;20035;-80
2021/12/22 12:53:57;;;;;;;8.50;5.35;;;3.40;99.90;;;;;;4986207;28;20026;-80
2021/12/22 12:56:35;;;;;;;9.60;5.35;;;3.40;99.90;;;;;;4963012;28;20030;-80
2021/12/22 12:59:06;;;;;;;15.02;5.70;;;3.40;99.90;;;;;;4994626;28;20084;-80
2021/12/22 13:01:47;;;;;;;11.75;5.78;;;3.50;99.90;;;;;;4968771;28;20066;-80
2021/12/22 13:04:26;;;;;;;7.90;5.10;;;3.50;99.90;;;;;;5000393;28;20030;-81